createdAt,value
2022-07-25T00:01:03.070Z,3.30
2022-07-25T00:04:11.068Z,3.65
2022-07-25T00:07:17.019Z,5.07
2022-07-25T00:10:21.798Z,3.70
2022-07-25T00:13:26.269Z,3.78
2022-07-25T00:16:31.000Z,2.60
2022-07-25T00:19:35.843Z,2.80
2022-07-25T00:22:40.630Z,3.40
2022-07-25T00:25:45.349Z,3.20
2022-07-25T00:28:50.067Z,3.95
2022-07-25T00:31:54.751Z,3.50
2022-07-25T00:34:59.935Z,3.10
2022-07-25T00:38:04.820Z,3.90
2022-07-25T00:41:09.625Z,2.97
2022-07-25T00:44:30.260Z,3.65
2022-07-25T00:47:34.983Z,3.17
2022-07-25T00:50:39.757Z,2.95
2022-07-25T00:53:45.513Z,4.28
2022-07-25T00:56:51.263Z,2.72
2022-07-25T00:59:56.286Z,3.08
2022-07-25T01:06:05.377Z,2.85
2022-07-25T01:09:10.750Z,3.90
2022-07-25T01:12:15.580Z,2.60
2022-07-25T01:15:21.691Z,2.90
2022-07-25T01:18:26.489Z,2.42
2022-07-25T01:21:31.483Z,2.67
2022-07-25T01:24:37.248Z,2.28
2022-07-25T01:27:43.293Z,2.72
2022-07-25T01:30:48.652Z,3.15
2022-07-25T01:33:53.491Z,2.47
2022-07-25T01:36:58.226Z,2.42
2022-07-25T01:40:03.735Z,2.33
2022-07-25T01:43:08.934Z,2.70
2022-07-25T01:46:13.972Z,2.78
2022-07-25T01:49:18.854Z,2.97
2022-07-25T01:52:23.556Z,2.85
2022-07-25T01:55:29.952Z,2.00
2022-07-25T01:58:36.668Z,1.90
2022-07-25T02:01:41.427Z,2.10
2022-07-25T02:04:45.844Z,1.48
2022-07-25T02:07:50.447Z,1.70
2022-07-25T02:10:55.462Z,2.03
2022-07-25T02:17:04.664Z,2.05
2022-07-25T02:23:13.844Z,1.10
2022-07-25T02:26:18.802Z,2.28
2022-07-25T02:29:23.267Z,2.30
2022-07-25T02:32:28.137Z,1.27
2022-07-25T02:35:32.901Z,1.90
2022-07-25T02:38:37.564Z,0.80
2022-07-25T02:41:42.561Z,1.23
2022-07-25T02:44:47.062Z,2.38
2022-07-25T02:47:52.067Z,1.05
2022-07-25T02:54:01.330Z,1.02
2022-07-25T02:57:06.045Z,1.40
2022-07-25T03:00:11.315Z,1.02
2022-07-25T03:03:16.013Z,0.70
2022-07-25T03:06:20.516Z,0.85
2022-07-25T03:09:24.837Z,1.00
2022-07-25T03:12:29.741Z,0.80
2022-07-25T03:15:34.271Z,0.90
2022-07-25T03:18:39.058Z,0.60
2022-07-25T03:21:43.870Z,0.63
2022-07-25T03:24:48.619Z,1.08
2022-07-25T03:27:53.389Z,1.40
2022-07-25T03:30:58.233Z,0.95
2022-07-25T03:34:03.248Z,1.20
2022-07-25T03:40:14.101Z,1.52
2022-07-25T03:43:20.412Z,1.90
2022-07-25T03:46:25.119Z,4.10
2022-07-25T03:49:29.621Z,2.63
2022-07-25T03:52:34.550Z,1.55
2022-07-25T03:55:40.653Z,2.65
2022-07-25T03:58:45.232Z,2.90
2022-07-25T04:01:51.280Z,2.53
2022-07-25T04:04:56.260Z,1.70
2022-07-25T04:08:01.292Z,1.63
2022-07-25T04:14:10.943Z,1.50
2022-07-25T04:20:21.192Z,1.05
2022-07-25T04:23:26.113Z,1.40
2022-07-25T04:26:30.743Z,1.33
2022-07-25T04:29:35.904Z,1.55
2022-07-25T04:38:50.810Z,1.60
2022-07-25T04:41:55.368Z,1.08
2022-07-25T04:45:00.019Z,1.50
2022-07-25T04:48:05.422Z,1.20
2022-07-25T04:51:11.446Z,1.45
2022-07-25T04:54:16.198Z,1.30
2022-07-25T04:57:21.233Z,1.80
2022-07-25T05:00:26.222Z,1.70
2022-07-25T05:03:30.943Z,1.92
2022-07-25T05:06:35.420Z,2.10
2022-07-25T05:09:40.861Z,1.92
2022-07-25T05:12:45.611Z,1.80
2022-07-25T05:15:50.128Z,1.60
2022-07-25T05:18:54.948Z,1.65
2022-07-25T05:21:59.714Z,1.60
2022-07-25T05:25:08.527Z,2.05
2022-07-25T05:28:15.817Z,1.60
2022-07-25T05:31:20.783Z,1.63
2022-07-25T05:37:29.618Z,1.70
2022-07-25T05:40:34.343Z,1.80
2022-07-25T05:43:39.132Z,1.60
2022-07-25T05:46:44.211Z,1.85
2022-07-25T05:49:49.236Z,1.45
2022-07-25T05:55:58.004Z,1.42
2022-07-25T05:59:02.807Z,1.38
2022-07-25T06:02:07.383Z,1.15
2022-07-25T06:05:12.045Z,1.35
2022-07-25T06:08:17.599Z,1.25
2022-07-25T06:11:22.078Z,1.38
2022-07-25T06:14:28.395Z,1.35
2022-07-25T06:17:33.124Z,1.23
2022-07-25T06:20:37.827Z,1.60
2022-07-25T06:23:42.252Z,1.70
2022-07-25T06:26:47.351Z,2.08
2022-07-25T06:29:51.889Z,1.65
2022-07-25T06:32:56.663Z,1.80
2022-07-25T06:36:02.085Z,1.77
2022-07-25T06:39:06.633Z,2.00
2022-07-25T06:42:11.332Z,2.13
2022-07-25T06:45:16.763Z,2.20
2022-07-25T06:48:21.683Z,2.03
2022-07-25T06:51:26.478Z,2.10
2022-07-25T06:54:31.194Z,2.17
2022-07-25T06:57:37.862Z,2.08
2022-07-25T07:00:42.438Z,1.75
2022-07-25T07:03:47.294Z,2.13
2022-07-25T07:06:51.881Z,1.80
2022-07-25T07:09:56.489Z,1.80
2022-07-25T07:13:11.671Z,1.50
2022-07-25T07:16:17.279Z,2.43
2022-07-25T07:19:22.182Z,2.30
2022-07-25T07:22:26.733Z,1.65
2022-07-25T07:25:31.733Z,1.65
2022-07-25T07:28:36.786Z,1.90
2022-07-25T07:31:41.815Z,1.83
2022-07-25T07:34:46.483Z,2.70
2022-07-25T07:37:51.038Z,1.88
2022-07-25T07:40:56.356Z,1.75
2022-07-25T07:44:00.967Z,2.03
2022-07-25T07:47:05.765Z,1.90
2022-07-25T07:50:22.601Z,2.08
2022-07-25T07:53:47.228Z,2.40
2022-07-25T07:56:51.944Z,1.77
2022-07-25T07:59:56.613Z,1.83
2022-07-25T08:03:01.372Z,2.28
2022-07-25T08:06:06.385Z,2.03
2022-07-25T08:09:11.252Z,1.85
2022-07-25T08:12:16.005Z,1.98
2022-07-25T08:15:22.593Z,1.90
2022-07-25T08:18:30.693Z,1.75
2022-07-25T08:21:35.468Z,1.95
2022-07-25T08:24:40.058Z,1.70
2022-07-25T08:27:48.572Z,2.17
2022-07-25T08:30:53.411Z,1.92
2022-07-25T08:33:58.523Z,2.30
2022-07-25T08:37:03.707Z,1.90
2022-07-25T08:40:08.836Z,2.25
2022-07-25T08:43:17.298Z,1.90
2022-07-25T08:46:22.966Z,1.90
2022-07-25T08:49:30.071Z,1.70
2022-07-25T08:52:36.679Z,2.00
2022-07-25T08:55:43.201Z,2.00
2022-07-25T08:58:48.221Z,1.77
2022-07-25T09:04:58.633Z,2.13
2022-07-25T09:08:13.505Z,2.10
2022-07-25T09:11:34.430Z,2.08
2022-07-25T09:14:45.637Z,2.33
2022-07-25T09:17:54.612Z,2.50
2022-07-25T09:21:01.485Z,1.90
2022-07-25T09:24:17.334Z,2.35
2022-07-25T09:27:22.078Z,2.30
2022-07-25T09:30:26.722Z,1.88
2022-07-25T09:33:31.505Z,2.20
2022-07-25T09:36:36.418Z,2.15
2022-07-25T09:39:46.871Z,2.30
2022-07-25T09:42:53.369Z,2.13
2022-07-25T09:45:59.952Z,2.20
2022-07-25T09:49:04.860Z,2.20
2022-07-25T09:52:11.709Z,1.80
2022-07-25T09:55:17.333Z,2.13
2022-07-25T09:58:22.044Z,2.47
2022-07-25T10:01:39.125Z,2.03
2022-07-25T10:04:48.398Z,2.00
2022-07-25T10:07:55.724Z,2.42
2022-07-25T10:11:00.825Z,2.72
2022-07-25T10:14:13.169Z,2.42
2022-07-25T10:17:24.336Z,2.50
2022-07-25T10:20:30.685Z,2.33
2022-07-25T10:23:35.383Z,2.70
2022-07-25T10:26:52.307Z,2.75
2022-07-25T10:29:57.410Z,3.40
2022-07-25T10:33:06.619Z,2.30
2022-07-25T10:36:12.403Z,2.72
2022-07-25T10:39:20.331Z,3.47
2022-07-25T10:42:27.571Z,3.20
2022-07-25T10:46:00.683Z,3.80
2022-07-25T10:49:09.052Z,4.20
2022-07-25T10:52:19.492Z,3.85
2022-07-25T10:55:25.087Z,3.55
2022-07-25T10:58:30.162Z,3.72
2022-07-25T11:01:39.490Z,4.93
2022-07-25T11:04:59.392Z,4.78
2022-07-25T11:08:21.252Z,5.35
2022-07-25T11:11:41.316Z,5.22
2022-07-25T11:14:48.942Z,4.88
2022-07-25T11:17:54.926Z,4.47
2022-07-25T11:21:06.696Z,4.30
2022-07-25T11:24:11.747Z,4.50
2022-07-25T11:27:42.815Z,4.28
2022-07-25T11:30:47.693Z,2.90
2022-07-25T11:33:52.654Z,3.95
2022-07-25T11:40:04.580Z,3.55
2022-07-25T11:43:09.302Z,3.20
2022-07-25T11:46:13.972Z,2.90
2022-07-25T11:49:19.040Z,3.45
2022-07-25T11:52:27.196Z,3.97
2022-07-25T11:55:37.348Z,3.75
2022-07-25T11:58:42.364Z,4.28
2022-07-25T12:01:48.366Z,3.92
2022-07-25T12:05:01.522Z,4.03
2022-07-25T12:08:19.004Z,3.05
2022-07-25T12:11:25.395Z,4.00
2022-07-25T12:14:35.153Z,4.57
2022-07-25T12:17:44.346Z,6.88
2022-07-25T12:20:49.550Z,6.55
2022-07-25T12:23:54.731Z,5.75
2022-07-25T12:26:59.378Z,5.22
2022-07-25T12:30:04.728Z,4.22
2022-07-25T12:33:09.963Z,3.72
2022-07-25T12:39:19.553Z,3.03
2022-07-25T12:42:25.292Z,3.00
2022-07-25T12:45:30.068Z,3.15
2022-07-25T12:48:34.884Z,3.05
2022-07-25T12:51:39.670Z,3.13
2022-07-25T12:54:44.577Z,3.30
2022-07-25T12:57:49.858Z,3.30
2022-07-25T13:04:08.135Z,3.55
2022-07-25T13:07:16.266Z,2.90
2022-07-25T13:10:21.489Z,3.38
2022-07-25T13:16:30.721Z,3.08
2022-07-25T13:19:36.038Z,3.42
2022-07-25T13:22:40.774Z,3.22
2022-07-25T13:25:45.279Z,3.10
2022-07-25T13:28:50.060Z,3.28
2022-07-25T13:31:54.655Z,3.85
2022-07-25T13:34:59.388Z,3.47
2022-07-25T13:38:04.062Z,2.92
2022-07-25T13:41:09.397Z,2.90
2022-07-25T13:44:16.182Z,3.42
2022-07-25T13:47:21.064Z,3.45
2022-07-25T13:50:25.939Z,3.70
2022-07-25T13:53:30.830Z,3.72
2022-07-25T13:56:35.644Z,3.75
2022-07-25T13:59:40.263Z,3.58
2022-07-25T14:02:45.192Z,3.60
2022-07-25T14:05:50.064Z,4.03
2022-07-25T14:11:59.616Z,3.15
2022-07-25T14:15:05.038Z,3.35
2022-07-25T14:18:10.607Z,2.90
2022-07-25T14:21:15.215Z,3.00
2022-07-25T14:24:19.664Z,2.97
2022-07-25T14:27:24.493Z,2.95
2022-07-25T14:30:29.178Z,3.13
2022-07-25T14:33:38.684Z,3.13
2022-07-25T14:36:45.692Z,2.90
2022-07-25T14:39:50.991Z,3.25
2022-07-25T14:42:55.736Z,2.83
2022-07-25T14:46:00.404Z,3.15
2022-07-25T14:49:05.302Z,4.28
2022-07-25T14:52:10.029Z,2.80
2022-07-25T14:55:14.988Z,2.57
2022-07-25T14:58:19.620Z,2.97
2022-07-25T15:01:26.563Z,2.97
2022-07-25T15:04:31.384Z,2.47
2022-07-25T15:07:36.114Z,2.78
2022-07-25T15:10:40.707Z,2.53
2022-07-25T15:13:45.727Z,2.72
2022-07-25T15:16:50.466Z,2.90
2022-07-25T15:19:55.476Z,2.92
2022-07-25T15:23:00.351Z,3.83
2022-07-25T15:26:06.467Z,3.35
2022-07-25T15:29:12.621Z,3.42
2022-07-25T15:32:18.811Z,3.58
2022-07-25T15:35:23.780Z,3.53
2022-07-25T15:38:29.841Z,3.13
2022-07-25T15:41:34.374Z,3.22
2022-07-25T15:44:38.799Z,3.03
2022-07-25T15:47:47.474Z,3.40
2022-07-25T15:50:56.881Z,3.15
2022-07-25T15:54:01.775Z,3.08
2022-07-25T15:57:07.936Z,3.10
2022-07-25T16:00:13.228Z,3.30
2022-07-25T16:06:22.907Z,2.65
2022-07-25T16:09:27.625Z,3.00
2022-07-25T16:12:32.499Z,2.72
2022-07-25T16:15:37.294Z,3.00
2022-07-25T16:18:42.090Z,3.15
2022-07-25T16:21:47.087Z,2.95
2022-07-25T16:24:51.952Z,2.80
2022-07-25T16:27:57.014Z,2.47
2022-07-25T16:31:01.586Z,2.72
2022-07-25T16:34:06.256Z,3.03
2022-07-25T16:37:10.936Z,2.80
2022-07-25T16:40:15.816Z,3.15
2022-07-25T16:43:20.487Z,3.33
2022-07-25T16:46:28.517Z,3.83
2022-07-25T16:49:33.441Z,3.28
2022-07-25T16:52:38.185Z,2.90
2022-07-25T16:55:42.976Z,3.00
2022-07-25T16:58:47.856Z,3.17
2022-07-25T17:01:52.518Z,2.50
2022-07-25T17:04:57.339Z,3.38
2022-07-25T17:08:01.995Z,3.05
2022-07-25T17:11:06.993Z,3.10
2022-07-25T17:14:11.497Z,2.75
2022-07-25T17:17:16.205Z,2.75
2022-07-25T17:20:20.963Z,2.83
2022-07-25T17:23:25.946Z,2.90
2022-07-25T17:26:30.880Z,2.70
2022-07-25T17:29:35.690Z,3.08
2022-07-25T17:32:40.839Z,2.33
2022-07-25T17:35:45.593Z,2.88
2022-07-25T17:38:50.230Z,2.80
2022-07-25T17:41:54.911Z,1.92
2022-07-25T17:44:59.624Z,2.92
2022-07-25T17:48:04.891Z,2.40
2022-07-25T17:51:09.625Z,2.50
2022-07-25T17:54:14.441Z,2.67
2022-07-25T17:57:20.323Z,2.40
2022-07-25T18:00:25.328Z,2.22
2022-07-25T18:03:30.160Z,2.08
2022-07-25T18:06:35.176Z,2.17
2022-07-25T18:09:39.674Z,2.40
2022-07-25T18:12:44.320Z,3.37
2022-07-25T18:15:49.098Z,2.03
2022-07-25T18:18:53.773Z,2.50
2022-07-25T18:21:58.528Z,2.85
2022-07-25T18:25:03.654Z,2.50
2022-07-25T18:28:08.550Z,2.70
2022-07-25T18:31:13.241Z,2.47
2022-07-25T18:34:18.682Z,3.00
2022-07-25T18:37:23.402Z,2.30
2022-07-25T18:40:28.737Z,2.22
2022-07-25T18:46:39.195Z,2.70
2022-07-25T18:49:45.800Z,2.80
2022-07-25T18:52:50.430Z,2.53
2022-07-25T18:55:55.000Z,2.70
2022-07-25T18:58:59.903Z,2.65
2022-07-25T19:02:06.238Z,2.30
2022-07-25T19:05:11.297Z,2.92
2022-07-25T19:08:15.945Z,2.40
2022-07-25T19:11:20.802Z,2.58
2022-07-25T19:14:27.005Z,2.70
2022-07-25T19:17:33.077Z,2.65
2022-07-25T19:20:37.683Z,3.13
2022-07-25T19:23:45.718Z,2.90
2022-07-25T19:26:54.372Z,3.58
2022-07-25T19:29:59.107Z,3.00
2022-07-25T19:33:03.636Z,2.92
2022-07-25T19:36:08.738Z,2.88
2022-07-25T19:39:13.920Z,3.10
2022-07-25T19:45:22.937Z,2.88
2022-07-25T19:48:27.521Z,2.63
2022-07-25T19:51:33.772Z,2.75
2022-07-25T19:54:39.798Z,3.00
2022-07-25T19:57:45.024Z,2.78
2022-07-25T20:00:49.781Z,2.67
2022-07-25T20:03:54.402Z,2.83
2022-07-25T20:07:01.911Z,2.75
2022-07-25T20:10:07.893Z,2.80
2022-07-25T20:13:12.431Z,2.80
2022-07-25T20:16:17.293Z,2.65
2022-07-25T20:19:21.908Z,3.20
2022-07-25T20:22:26.790Z,2.88
2022-07-25T20:25:31.511Z,3.00
2022-07-25T20:28:36.347Z,2.60
2022-07-25T20:31:42.322Z,2.80
2022-07-25T20:34:46.873Z,2.50
2022-07-25T20:37:51.570Z,3.10
2022-07-25T20:40:57.224Z,2.90
2022-07-25T20:44:01.692Z,3.25
2022-07-25T20:47:06.381Z,3.50
2022-07-25T20:50:11.565Z,2.90
2022-07-25T20:53:16.348Z,2.88
2022-07-25T20:56:21.178Z,2.95
2022-07-25T20:59:26.074Z,3.05
2022-07-25T21:02:30.687Z,2.67
2022-07-25T21:05:35.332Z,3.22
2022-07-25T21:08:40.247Z,3.65
2022-07-25T21:11:44.920Z,3.10
2022-07-25T21:14:49.414Z,3.22
2022-07-25T21:17:54.369Z,3.33
2022-07-25T21:20:59.409Z,3.10
2022-07-25T21:24:03.978Z,3.50
2022-07-25T21:27:08.390Z,3.40
2022-07-25T21:30:15.077Z,3.60
2022-07-25T21:33:19.914Z,3.20
2022-07-25T21:36:24.605Z,3.58
2022-07-25T21:39:29.212Z,3.35
2022-07-25T21:42:34.009Z,3.78
2022-07-25T21:45:38.804Z,4.70
2022-07-25T21:49:01.776Z,3.40
2022-07-25T21:52:07.337Z,3.03
2022-07-25T21:55:12.009Z,3.42
2022-07-25T21:58:16.575Z,3.60
2022-07-25T22:01:22.146Z,3.25
2022-07-25T22:04:26.696Z,3.17
2022-07-25T22:07:31.455Z,3.45
2022-07-25T22:10:36.178Z,3.28
2022-07-25T22:13:43.130Z,3.20
2022-07-25T22:16:47.976Z,3.15
2022-07-25T22:19:52.948Z,3.00
2022-07-25T22:22:57.487Z,3.20
2022-07-25T22:26:01.986Z,3.17
2022-07-25T22:29:06.862Z,3.40
2022-07-25T22:35:16.754Z,3.03
2022-07-25T22:38:21.379Z,3.67
2022-07-25T22:41:25.951Z,3.60
2022-07-25T22:44:30.710Z,3.88
2022-07-25T22:47:35.217Z,4.30
2022-07-25T22:50:39.938Z,3.20
2022-07-25T22:53:44.404Z,3.75
2022-07-25T22:56:49.043Z,3.70
2022-07-25T22:59:53.443Z,4.05
2022-07-25T23:02:58.451Z,3.33
2022-07-25T23:09:08.154Z,3.20
2022-07-25T23:12:13.026Z,3.03
2022-07-25T23:15:17.705Z,4.20
2022-07-25T23:18:22.514Z,2.83
2022-07-25T23:21:27.264Z,2.80
2022-07-25T23:24:34.483Z,2.97
2022-07-25T23:27:42.224Z,3.40
2022-07-25T23:30:47.107Z,3.30
2022-07-25T23:33:51.466Z,3.42
2022-07-25T23:36:56.224Z,2.72
2022-07-25T23:40:00.869Z,2.90
2022-07-25T23:43:06.712Z,2.85
2022-07-25T23:46:11.734Z,2.20
2022-07-25T23:52:20.659Z,2.20
2022-07-25T23:55:25.301Z,2.13
2022-07-25T23:58:29.937Z,2.50
